KAEX/AEX METAR and TAF weather

Enter ICAO airport designator
Station Type Date Time Source
KAEX METAR 2018/04/21 10:53 UTC NOAA

KAEX 211053Z 07003KT 9SM CLR 11/09 A3009 RMK AO2 SLP194 T01060089


Station Type Date Time Source
KAEX Decoded METAR 2018/04/21 10:53 UTC NOAA

ALEXANDRIA INTERNATIONAL AIRPORT, LA, United States (KAEX) 31-33N 092-56W 27M
Apr 21, 2018 - 06:53 AM EDT / 2018.04.21 1053 UTC
Wind: from the ENE (070 degrees) at 3 MPH (3 KT):0
Visibility: 9 mile(s):0
Sky conditions: clear
Temperature: 51.1 F (10.6 C)
Dew Point: 48.0 F (8.9 C)
Relative Humidity: 89%
Pressure (altimeter): 30.09 in. Hg (1018 hPa)
ob: KAEX 211053Z 07003KT 9SM CLR 11/09 A3009 RMK AO2 SLP194 T01060089
cycle: 11

Station Type Date Time Source
KAEX TAF 2018/04/21 12:24 UTC NOAA

TAF KAEX 211121Z 2112/2212 VRB03KT P6SM BKN200
FM211500 12007KT P6SM SCT050 BKN150
FM211900 13010KT P6SM BKN050
FM220000 14008KT P6SM VCSH BKN035
FM220600 15008KT 5SM -SHRA BR OVC015
TEMPO 2208/2212 VRB10G20KT 2SM TSRA OVC007CB


Example: see airport list